• Join FlightAware (Why Join?)
  • Login
  • US Flag 
03:32PM EST


 

Airport Tracker/Info


-or-


 

Live Flight TrackerFlight Track Log ✈ N860BA ✈ 09-May-2013 ✈ KCRP - MYBC / CCZ

Flight Track Log - Related Links

Times and Time Zones

All times are in EDT time to prevent confusion due to time zone crossing. See the N860BA flight status page for this flight to view local times or setup timezone preferences in your user account.

Time Position Orientation Groundspeed Altitude Reporting Facility
EDT Latitude Longitude Course Direction KTS MPH feet Rate Location/Type
10:39AM 27.7556 -97.4908 78° East 155 178 700  Level Houston Center
10:40AM 27.7661 -97.4325 78° East 226 260 3,900 2,340 Climbing Houston Center
10:41AM 27.7903 -97.4178 28° Northeast 268 308 4,900 2,340 Climbing Houston Center
10:42AM 27.8489 -97.3847 27° Northeast 240 276 7,200 2,100 Climbing Houston Center
10:43AM 27.8978 -97.3331 43° Northeast 249 287 9,300 1,740 Climbing Houston Center
10:44AM 27.9156 -97.2519 76° East 262 302 10,900 1,320 Climbing Houston Center
10:45AM 27.9361 -97.1536 77° East 308 354 12,100 1,200 Climbing Houston Center
10:46AM 27.9631 -97.0242 77° East 358 412 13,400 1,140 Climbing Houston Center
10:47AM 27.9883 -96.8992 77° East 399 459 14,500 1,020 Climbing Houston Center
10:48AM 28.0144 -96.7681 77° East 424 488 15,600 960 Climbing Houston Center
10:49AM 28.0417 -96.6292 77° East 448 516 16,600 960 Climbing Houston Center
10:50AM 28.0692 -96.4892 77° East 456 525 17,700 1,080 Climbing Houston Center
10:51AM 28.1039 -96.3147 77° East 472 543 18,900 1,080 Climbing Houston Center
10:52AM 28.1319 -96.1675 78° East 478 550 20,000 960 Climbing Houston Center
10:53AM 28.1614 -96.0172 77° East 486 559 21,000 960 Climbing Houston Center
10:54AM 28.1914 -95.8631 78° East 496 571 22,000 960 Climbing Houston Center
10:55AM 28.2211 -95.7108 77° East 496 571 23,100 1,020 Climbing Houston Center
10:56AM 28.2519 -95.5497 78° East 499 574 24,200 960 Climbing Houston Center
10:57AM 28.2814 -95.3953 78° East 503 579 25,200 1,020 Climbing Houston Center
10:58AM 28.3158 -95.2111 78° East 501 577 26,400 1,080 Climbing Houston Center
10:59AM 28.3258 -95.0544 86° East 498 573 27,500 900 Climbing Houston Center
11:00AM 28.3303 -94.8983 88° East 498 573 28,300 660 Climbing Houston Center
11:01AM 28.3356 -94.7408 88° East 501 577 28,900 540 Climbing Houston Center
11:02AM 28.3403 -94.5817 88° East 505 581 29,500 540 Climbing Houston Center
11:03AM 28.3456 -94.3883 88° East 511 588 30,100 540 Climbing Houston Center
11:04AM 28.3503 -94.2275 88° East 512 589 30,700 540 Climbing Houston Center
11:05AM 28.3561 -94.0658 88° East 515 593 31,300 540 Climbing Houston Center
11:06AM 28.3592 -93.9042 89° East 514 592 31,900 480 Climbing Houston Center
11:07AM 28.3631 -93.7422 88° East 516 594 32,400 540 Climbing Houston Center
11:09AM 28.3689 -93.5467 88° East 518 596 33,100 600 Climbing Houston Center
11:10AM 28.3714 -93.3836 89° East 518 596 33,700 480 Climbing Houston Center
11:11AM 28.3753 -93.2158 88° East 519 597 34,200 480 Climbing Houston Center
11:12AM 28.3781 -93.0522 89° East 521 600 34,800 360 Climbing Houston Center
11:13AM 28.3814 -92.8875 89° East 524 603 35,000 60 Climbing Houston Center
11:14AM 28.3842 -92.7183 89° East 536 617 35,000  Level Houston Center
11:15AM 28.3872 -92.5133 89° East 543 625 35,000  Level Houston Center
11:16AM 28.3900 -92.3431 89° East 542 624 35,000  Level Houston Center
11:17AM 28.3936 -92.1725 89° East 544 626 35,000  Level Houston Center
11:18AM 28.3947 -92.0031 90° East 541 623 35,000  Level Houston Center
11:19AM 28.3967 -91.8322 89° East 542 624 35,000  Level Houston Center
11:20AM 28.3983 -91.6494 89° East 543 625 35,000  Level Houston Center
11:21AM 28.3992 -91.4800 90° East 540 621 35,000  Level Houston Center
11:22AM 28.4006 -91.2750 90° East 542 624 35,000  Level Houston Center
11:23AM 28.4014 -91.1044 90° East 543 625 35,000  Level Houston Center
11:24AM 28.4028 -90.9344 89° East 542 624 35,000  Level Houston Center
11:25AM 28.4028 -90.7644 90° East 541 623 35,000  Level Houston Center
11:26AM 28.4033 -90.5964 90° East 537 618 35,000  Level Houston Center
11:27AM 28.4031 -90.4306 90° East 530 610 35,000  Level Houston Center
11:28AM 28.4033 -90.2319 90° East 528 608 35,000  Level Houston Center
11:29AM 28.4028 -90.0653 90° East 528 608 35,000  Level Houston Center
11:30AM 28.4017 -89.9008 90° East 525 604 35,000  Level Houston Center
11:31AM 28.4011 -89.7331 90° East 532 612 35,000  Level Houston Center
11:32AM 28.4003 -89.5706 90° East 523 602 35,000  Level Houston Center
11:33AM 28.3994 -89.3753 90° East 520 598 35,000  Level Houston Center
11:34AM 28.3983 -89.2144 90° East 515 593 35,000  Level Houston Center
11:35AM 28.3964 -89.0508 91° East 520 598 35,000  Level Houston Center
11:36AM 28.3947 -88.8886 91° East 518 596 35,000  Level Houston Center
11:37AM 28.3925 -88.7261 91° East 518 596 35,000  Level Houston Center
11:39AM 28.3911 -88.5317 90° East 516 594 35,000  Level Houston Center
11:40AM 28.3889 -88.3689 91° East 516 594 35,000  Level Houston Center
11:40AM 28.3833 -88.2311 93° East 504 580 35,000  Level Jacksonville Center
11:41AM 28.3794 -88.0706 92° East 510 587 35,000  Level Jacksonville Center
11:42AM 28.3464 -87.9086 103° East 517 595 35,000  Level Jacksonville Center
11:43AM 28.3042 -87.7556 107° East 517 595 35,000 -60 Level Jacksonville Center
11:44AM 28.2619 -87.6028 107° East 518 596 34,900  Descending Jacksonville Center
11:45AM 28.2075 -87.4308 110° East 534 615 35,000  Climbing Jacksonville Center
11:46AM 28.1667 -87.2853 108° East 524 603 35,000  Level Jacksonville Center
11:47AM 28.1200 -87.1281 109° East 526 605 35,000  Level Jacksonville Center
11:48AM 28.0689 -86.9636 109° East 532 612 35,000  Level Jacksonville Center
11:49AM 28.0239 -86.8019 107° East 532 612 35,000  Level Jacksonville Center
11:50AM 27.9783 -86.6522 109° East 528 608 35,000  Level Jacksonville Center
11:51AM 27.9306 -86.4931 109° East 528 608 35,000  Level Jacksonville Center
11:52AM 27.8850 -86.3342 108° East 529 609 35,000  Level Jacksonville Center
11:53AM 27.8369 -86.1731 109° East 525 604 35,000  Level Jacksonville Center
11:54AM 27.7928 -86.0217 108° East 521 600 35,000  Level Jacksonville Center
11:55AM 27.7444 -85.8631 109° East 521 600 35,000  Level Jacksonville Center
11:56AM 27.6997 -85.7117 108° East 521 600 35,000  Level Jacksonville Center
11:57AM 27.6903 -85.6744 106° East 519 597 35,000  Level Miami Center
11:58AM 27.6342 -85.4994 110° East 536 617 35,000  Level Miami Center
11:59AM 27.5872 -85.3436 109° East 536 617 35,000  Level Miami Center
12:00PM 27.5608 -85.1850 101° East 526 605 35,000  Level Miami Center
12:01PM 27.5406 -85.0317 98° East 510 587 35,000 -60 Level Miami Center
12:02PM 27.5097 -84.8753 102° East 515 593 34,900  Descending Miami Center
12:03PM 27.4747 -84.7186 104° East 515 593 35,000  Climbing Miami Center
12:04PM 27.4267 -84.5658 109° East 515 593 35,000  Level Miami Center
12:05PM 27.3806 -84.4131 109° East 520 598 35,000  Level Miami Center
12:06PM 27.3300 -84.2581 110° East 520 598 35,000 -60 Level Miami Center
12:07PM 27.2858 -84.1058 108° East 520 598 34,900  Descending Miami Center
12:08PM 27.2392 -83.9536 109° East 514 592 35,000  Climbing Miami Center
12:09PM 27.1922 -83.8017 109° East 514 592 35,000 -60 Level Miami Center
12:10PM 27.1453 -83.6494 109° East 514 592 34,900  Descending Miami Center
12:11PM 27.0975 -83.5092 111° Southeast 520 598 35,000  Climbing Miami Center
12:12PM 27.0564 -83.3600 107° East 513 590 35,000  Level Miami Center
12:13PM 27.0067 -83.2106 110° East 508 585 35,000  Level Miami Center
12:14PM 26.9608 -83.0661 110° East 503 579 35,000  Level Miami Center
12:15PM 26.9167 -82.9217 109° East 498 573 35,000  Level Miami Center
12:16PM 26.8706 -82.7797 110° East 498 573 35,000  Level Miami Center
12:17PM 26.8222 -82.6308 110° East 498 573 35,000  Level Miami Center
12:18PM 26.7756 -82.4867 110° East 498 573 35,000 -60 Level Miami Center
12:19PM 26.7311 -82.3428 109° East 498 573 34,900 -60 Descending Miami Center
12:20PM 26.6822 -82.1986 111° Southeast 498 573 34,900  Level Miami Center
12:21PM 26.6353 -82.0525 110° East 498 573 34,900  Level Miami Center
12:22PM 26.5858 -81.9133 112° Southeast 498 573 34,900  Level Miami Center
12:23PM 26.5411 -81.7606 108° East 498 573 35,000  Climbing Miami Center
12:24PM 26.4878 -81.6031 111° Southeast 498 573 35,000 -60 Level Miami Center
12:25PM 26.4425 -81.4575 109° East 498 573 34,900 -60 Descending Miami Center
12:26PM 26.3947 -81.3142 110° East 498 573 34,900  Level Miami Center
12:27PM 26.3467 -81.1686 110° East 498 573 34,900  Level Miami Center
12:28PM 26.3083 -81.0561 111° Southeast 498 573 34,900  Level Miami Center
12:29PM 26.2483 -80.8872 112° Southeast 492 566 35,000  Climbing Miami Center
12:30PM 26.2042 -80.7422 109° East 498 573 34,900  Descending Miami Center
12:31PM 26.1558 -80.5972 110° East 498 573 35,000  Climbing Miami Center
12:32PM 26.1072 -80.4544 111° Southeast 492 566 34,900  Descending Miami Center
12:33PM 26.0564 -80.3119 112° Southeast 498 573 35,000  Climbing Miami Center
12:34PM 26.0094 -80.1694 110° East 498 573 35,000  Level Miami Center
12:35PM 25.9583 -80.0272 112° Southeast 498 573 35,000 -60 Level Miami Center
12:36PM 25.9111 -79.8875 111° Southeast 492 566 34,900 -240 Descending Miami Center
12:37PM 25.8639 -79.7431 110° East 492 566 34,600 -1,380 Descending Miami Center
12:38PM 25.8144 -79.6033 111° Southeast 492 566 32,200 -2,400 Descending Miami Center
12:39PM 25.7644 -79.4683 112° Southeast 483 556 29,800 -2,100 Descending Miami Center
12:40PM 25.7189 -79.3361 111° Southeast 471 542 28,000 -1,800 Descending Miami Center
12:41PM 25.6833 -79.1992 106° East 460 529 26,200 -1,560 Descending Miami Center
12:42PM 25.6583 -79.0581 101° East 460 529 24,900 -1,020 Descending Miami Center
12:43PM 25.6350 -78.9378 102° East 450 518 24,200 -1,080 Descending Miami Center
12:44PM 25.6056 -78.8083 104° East 437 503 22,800 -2,400 Descending Miami Center
12:45PM 25.5842 -78.6767 100° East 431 496 19,400 -3,780 Descending Miami Center
12:46PM 25.5522 -78.5450 105° East 431 496 15,300 -4,200 Descending Miami Center
12:47PM 25.5267 -78.4156 102° East 432 497 11,000 -2,520 Descending Miami Center
12:48PM 25.5067 -78.3186 103° East 382 440 10,300 -1,980 Descending Miami Center
12:49PM 25.4908 -78.2333 102° East 309 356 7,100 -3,240 Descending Miami Center